N478JC KAMA-KABI
Flight info
| Callsign | N478JC |
|---|---|
| Flight time | 1h 14m |
| Altitude | 3500 |
| Route | ABI |
| Aircraft | A36/L-SG/C |
Departure
| Time | 2026-04-27 15:36 |
|---|---|
| Airport | Rick Husband Amarillo International Airport (KAMA) |
Arrival
| Time | 2026-04-27 16:50 |
|---|---|
| Airport | Abilene Regional Airport (KABI) |
| Time | Latitude | Longitude | Altitude | Speed | Heading |
|---|---|---|---|---|---|
| 2026-04-27 15:16 | 35.21039 | -101.71715 | 3614 ft | 0 kts | 133° |
| 2026-04-27 15:27 | 35.21038 | -101.71714 | 3614 ft | 0 kts | 131° |
| 2026-04-27 15:28 | 35.21028 | -101.71716 | 3614 ft | 4 kts | 242° |
| 2026-04-27 15:28 | 35.21038 | -101.71753 | 3614 ft | 6 kts | 298° |
| 2026-04-27 15:28 | 35.21043 | -101.71764 | 3614 ft | 0 kts | 298° |
| 2026-04-27 15:28 | 35.21050 | -101.71780 | 3614 ft | 7 kts | 297° |
| 2026-04-27 15:29 | 35.21076 | -101.71838 | 3613 ft | 9 kts | 298° |
| 2026-04-27 15:29 | 35.21119 | -101.71904 | 3611 ft | 11 kts | 315° |
| 2026-04-27 15:29 | 35.21190 | -101.71892 | 3610 ft | 13 kts | 46° |
| 2026-04-27 15:29 | 35.21255 | -101.71811 | 3612 ft | 14 kts | 46° |
| 2026-04-27 15:30 | 35.21333 | -101.71715 | 3611 ft | 18 kts | 46° |
| 2026-04-27 15:30 | 35.21424 | -101.71597 | 3614 ft | 20 kts | 45° |
| 2026-04-27 15:30 | 35.21530 | -101.71464 | 3614 ft | 23 kts | 46° |
| 2026-04-27 15:30 | 35.21648 | -101.71317 | 3614 ft | 25 kts | 46° |
| 2026-04-27 15:31 | 35.21769 | -101.71164 | 3611 ft | 25 kts | 46° |
| 2026-04-27 15:31 | 35.21885 | -101.71018 | 3610 ft | 23 kts | 47° |
| 2026-04-27 15:31 | 35.21996 | -101.70877 | 3610 ft | 23 kts | 46° |
| 2026-04-27 15:31 | 35.22102 | -101.70741 | 3611 ft | 23 kts | 45° |
| 2026-04-27 15:32 | 35.22213 | -101.70604 | 3614 ft | 22 kts | 45° |
| 2026-04-27 15:32 | 35.22323 | -101.70465 | 3613 ft | 24 kts | 46° |
| 2026-04-27 15:32 | 35.22442 | -101.70316 | 3612 ft | 25 kts | 46° |
| 2026-04-27 15:32 | 35.22571 | -101.70152 | 3609 ft | 28 kts | 45° |
| 2026-04-27 15:33 | 35.22703 | -101.69986 | 3609 ft | 24 kts | 46° |
| 2026-04-27 15:33 | 35.22795 | -101.69870 | 3610 ft | 15 kts | 44° |
| 2026-04-27 15:33 | 35.22888 | -101.69834 | 3611 ft | 15 kts | 339° |
| 2026-04-27 15:33 | 35.22964 | -101.69903 | 3613 ft | 13 kts | 316° |
| 2026-04-27 15:34 | 35.23030 | -101.69980 | 3614 ft | 14 kts | 316° |
| 2026-04-27 15:34 | 35.23055 | -101.70068 | 3614 ft | 10 kts | 229° |
| 2026-04-27 15:34 | 35.22942 | -101.70215 | 3610 ft | 47 kts | 226° |
| 2026-04-27 15:34 | 35.22611 | -101.70623 | 3641 ft | 80 kts | 232° |
| 2026-04-27 15:35 | 35.22335 | -101.70954 | 3731 ft | 84 kts | 234° |
| 2026-04-27 15:35 | 35.21927 | -101.71465 | 3876 ft | 87 kts | 234° |
| 2026-04-27 15:35 | 35.21530 | -101.71953 | 3925 ft | 86 kts | 231° |
| 2026-04-27 15:35 | 35.21062 | -101.72535 | 4052 ft | 102 kts | 232° |
| 2026-04-27 15:36 | 35.20570 | -101.73156 | 4350 ft | 100 kts | 232° |
| 2026-04-27 15:36 | 35.19930 | -101.73502 | 4638 ft | 119 kts | 182° |
| 2026-04-27 15:36 | 35.19179 | -101.72826 | 4759 ft | 149 kts | 138° |
| 2026-04-27 15:36 | 35.18516 | -101.71830 | 4973 ft | 150 kts | 137° |
| 2026-04-27 15:37 | 35.17861 | -101.70861 | 5192 ft | 149 kts | 137° |
| 2026-04-27 15:37 | 35.17230 | -101.69863 | 5432 ft | 148 kts | 133° |
| 2026-04-27 15:37 | 35.16584 | -101.68837 | 5550 ft | 158 kts | 133° |
| 2026-04-27 15:37 | 35.15883 | -101.67738 | 5588 ft | 171 kts | 133° |
| 2026-04-27 15:38 | 35.15127 | -101.66577 | 5481 ft | 178 kts | 134° |
| 2026-04-27 15:38 | 35.14313 | -101.65377 | 5435 ft | 187 kts | 135° |
| 2026-04-27 15:38 | 35.13481 | -101.64142 | 5432 ft | 193 kts | 128° |
| 2026-04-27 15:38 | 35.12708 | -101.62791 | 5435 ft | 193 kts | 134° |
| 2026-04-27 15:39 | 35.11693 | -101.61771 | 5441 ft | 186 kts | 156° |
| 2026-04-27 15:39 | 35.10568 | -101.61014 | 5440 ft | 185 kts | 159° |
| 2026-04-27 15:39 | 35.09445 | -101.60244 | 5443 ft | 185 kts | 158° |
| 2026-04-27 15:39 | 35.08331 | -101.59449 | 5446 ft | 186 kts | 156° |
| 2026-04-27 15:40 | 35.07211 | -101.58632 | 5444 ft | 189 kts | 156° |
| 2026-04-27 15:40 | 35.06078 | -101.57813 | 5445 ft | 189 kts | 156° |
| 2026-04-27 15:40 | 35.04949 | -101.57003 | 5441 ft | 187 kts | 157° |
| 2026-04-27 15:40 | 35.03828 | -101.56203 | 5442 ft | 187 kts | 158° |
| 2026-04-27 15:41 | 35.02707 | -101.55402 | 5443 ft | 186 kts | 158° |
| 2026-04-27 15:41 | 35.01589 | -101.54603 | 5444 ft | 186 kts | 158° |
| 2026-04-27 15:41 | 35.00477 | -101.53807 | 5448 ft | 185 kts | 158° |
| 2026-04-27 15:41 | 34.99378 | -101.53023 | 5451 ft | 186 kts | 157° |
| 2026-04-27 15:42 | 34.98258 | -101.52223 | 5449 ft | 186 kts | 157° |
| 2026-04-27 15:42 | 34.97210 | -101.51379 | 5459 ft | 172 kts | 150° |
| 2026-04-27 15:42 | 34.96182 | -101.50685 | 5457 ft | 171 kts | 165° |
| 2026-04-27 15:42 | 34.95100 | -101.50045 | 5453 ft | 174 kts | 161° |
| 2026-04-27 15:43 | 34.94028 | -101.49250 | 5448 ft | 185 kts | 153° |
| 2026-04-27 15:43 | 34.92917 | -101.48399 | 5458 ft | 188 kts | 156° |
| 2026-04-27 15:43 | 34.91799 | -101.47581 | 5452 ft | 186 kts | 158° |
| 2026-04-27 15:43 | 34.90667 | -101.46809 | 5449 ft | 187 kts | 158° |
| 2026-04-27 15:44 | 34.89529 | -101.46013 | 5447 ft | 189 kts | 158° |
| 2026-04-27 15:44 | 34.88399 | -101.45197 | 5456 ft | 189 kts | 157° |
| 2026-04-27 15:44 | 34.87282 | -101.44391 | 5453 ft | 190 kts | 157° |
| 2026-04-27 15:44 | 34.86141 | -101.43579 | 5458 ft | 190 kts | 158° |
| 2026-04-27 15:45 | 34.85000 | -101.42767 | 5449 ft | 191 kts | 158° |
| 2026-04-27 15:45 | 34.83860 | -101.41954 | 5454 ft | 189 kts | 159° |
| 2026-04-27 15:45 | 34.82724 | -101.41151 | 5456 ft | 189 kts | 157° |
| 2026-04-27 15:45 | 34.81603 | -101.40359 | 5463 ft | 189 kts | 156° |
| 2026-04-27 15:46 | 34.80446 | -101.39534 | 5452 ft | 190 kts | 158° |
| 2026-04-27 15:46 | 34.79299 | -101.38730 | 5453 ft | 190 kts | 156° |
| 2026-04-27 15:46 | 34.78165 | -101.37903 | 5454 ft | 189 kts | 157° |
| 2026-04-27 15:46 | 34.77033 | -101.37094 | 5460 ft | 190 kts | 158° |
| 2026-04-27 15:47 | 34.75882 | -101.36284 | 5454 ft | 192 kts | 159° |
| 2026-04-27 15:47 | 34.74723 | -101.35472 | 5451 ft | 193 kts | 156° |
| 2026-04-27 15:47 | 34.73567 | -101.34641 | 5416 ft | 192 kts | 156° |
| 2026-04-27 15:47 | 34.72430 | -101.33829 | 5530 ft | 185 kts | 156° |
| 2026-04-27 15:48 | 34.71340 | -101.33068 | 5692 ft | 178 kts | 162° |
| 2026-04-27 15:48 | 34.70269 | -101.32306 | 5845 ft | 176 kts | 158° |
| 2026-04-27 15:48 | 34.69234 | -101.31576 | 6012 ft | 170 kts | 161° |
| 2026-04-27 15:49 | 34.67222 | -101.30127 | 6336 ft | 166 kts | 162° |
| 2026-04-27 15:49 | 34.66224 | -101.29439 | 6493 ft | 164 kts | 162° |
| 2026-04-27 15:49 | 34.65230 | -101.28739 | 6665 ft | 166 kts | 162° |
| 2026-04-27 15:49 | 34.64238 | -101.28036 | 6824 ft | 164 kts | 162° |
| 2026-04-27 15:50 | 34.63259 | -101.27341 | 6988 ft | 162 kts | 162° |
| 2026-04-27 15:50 | 34.62291 | -101.26656 | 7151 ft | 160 kts | 163° |
| 2026-04-27 15:50 | 34.61332 | -101.26006 | 7323 ft | 157 kts | 166° |
| 2026-04-27 15:50 | 34.60357 | -101.25307 | 7364 ft | 168 kts | 161° |
| 2026-04-27 15:51 | 34.59336 | -101.24566 | 7373 ft | 173 kts | 162° |
| 2026-04-27 15:51 | 34.58296 | -101.23835 | 7375 ft | 176 kts | 162° |
| 2026-04-27 15:51 | 34.57225 | -101.23081 | 7380 ft | 179 kts | 162° |
| 2026-04-27 15:51 | 34.56137 | -101.22316 | 7378 ft | 182 kts | 161° |
| 2026-04-27 15:52 | 34.55039 | -101.21540 | 7375 ft | 183 kts | 161° |
| 2026-04-27 15:52 | 34.53937 | -101.20760 | 7377 ft | 183 kts | 161° |
| 2026-04-27 15:52 | 34.52834 | -101.19983 | 7377 ft | 184 kts | 161° |
| 2026-04-27 15:52 | 34.51940 | -101.19327 | 11875 ft | 152 kts | 161° |
| 2026-04-27 15:53 | 34.51090 | -101.18522 | 11809 ft | 160 kts | 161° |
| 2026-04-27 15:53 | 34.50164 | -101.17823 | 11760 ft | 148 kts | 180° |
| 2026-04-27 15:53 | 34.49184 | -101.17338 | 11718 ft | 157 kts | 173° |
| 2026-04-27 15:53 | 34.48212 | -101.16718 | 11671 ft | 163 kts | 169° |
| 2026-04-27 15:54 | 34.47224 | -101.16032 | 11610 ft | 165 kts | 167° |
| 2026-04-27 15:54 | 34.46231 | -101.15332 | 11566 ft | 166 kts | 167° |
| 2026-04-27 15:54 | 34.45227 | -101.14626 | 11464 ft | 170 kts | 167° |
| 2026-04-27 15:54 | 34.44188 | -101.13899 | 11325 ft | 175 kts | 166° |
| 2026-04-27 15:55 | 34.43130 | -101.13151 | 11188 ft | 177 kts | 165° |
| 2026-04-27 15:55 | 34.42403 | -101.12652 | 11043 ft | 180 kts | 167° |
| 2026-04-27 15:55 | 34.40924 | -101.11622 | 10740 ft | 190 kts | 164° |
| 2026-04-27 15:55 | 34.39788 | -101.10772 | 10512 ft | 194 kts | 162° |
| 2026-04-27 15:56 | 34.38635 | -101.09910 | 10274 ft | 196 kts | 162° |
| 2026-04-27 15:56 | 34.37465 | -101.09039 | 10043 ft | 198 kts | 161° |
| 2026-04-27 15:56 | 34.36282 | -101.08161 | 9822 ft | 200 kts | 161° |
| 2026-04-27 15:56 | 34.35092 | -101.07279 | 9582 ft | 201 kts | 161° |
| 2026-04-27 15:57 | 34.33892 | -101.06390 | 9325 ft | 203 kts | 161° |
| 2026-04-27 15:57 | 34.32688 | -101.05497 | 9129 ft | 201 kts | 161° |
| 2026-04-27 15:57 | 34.31533 | -101.04632 | 9125 ft | 190 kts | 161° |
| 2026-04-27 15:57 | 34.30425 | -101.03811 | 9119 ft | 184 kts | 162° |
| 2026-04-27 15:58 | 34.29344 | -101.03015 | 9117 ft | 180 kts | 162° |
| 2026-04-27 15:58 | 34.28284 | -101.02233 | 9117 ft | 177 kts | 162° |
| 2026-04-27 15:58 | 34.27235 | -101.01460 | 9117 ft | 177 kts | 163° |
| 2026-04-27 15:58 | 34.26188 | -101.00687 | 9118 ft | 176 kts | 163° |
| 2026-04-27 15:59 | 34.25147 | -100.99917 | 9116 ft | 175 kts | 163° |
| 2026-04-27 15:59 | 34.24110 | -100.99152 | 9117 ft | 174 kts | 163° |
| 2026-04-27 15:59 | 34.23087 | -100.98394 | 9126 ft | 172 kts | 163° |
| 2026-04-27 15:59 | 34.22070 | -100.97644 | 9127 ft | 171 kts | 163° |
| 2026-04-27 16:00 | 34.21071 | -100.96908 | 9123 ft | 170 kts | 163° |
| 2026-04-27 16:00 | 34.20388 | -100.96403 | 9121 ft | 170 kts | 163° |
| 2026-04-27 16:00 | 34.19048 | -100.95415 | 9126 ft | 170 kts | 163° |
| 2026-04-27 16:00 | 34.18035 | -100.94669 | 9120 ft | 171 kts | 163° |
| 2026-04-27 16:01 | 34.17022 | -100.93921 | 9125 ft | 171 kts | 163° |
| 2026-04-27 16:01 | 34.16010 | -100.93175 | 9125 ft | 170 kts | 163° |
| 2026-04-27 16:01 | 34.14998 | -100.92429 | 9121 ft | 170 kts | 163° |
| 2026-04-27 16:01 | 34.13984 | -100.91683 | 9127 ft | 171 kts | 163° |
| 2026-04-27 16:02 | 34.12967 | -100.90934 | 9126 ft | 171 kts | 163° |
| 2026-04-27 16:02 | 34.11951 | -100.90185 | 9129 ft | 171 kts | 163° |
| 2026-04-27 16:02 | 34.10932 | -100.89435 | 9135 ft | 172 kts | 163° |
| 2026-04-27 16:02 | 34.09910 | -100.88684 | 9126 ft | 172 kts | 163° |
| 2026-04-27 16:03 | 34.08890 | -100.87932 | 9129 ft | 172 kts | 163° |
| 2026-04-27 16:03 | 34.07870 | -100.87182 | 9131 ft | 172 kts | 163° |
| 2026-04-27 16:03 | 34.06848 | -100.86431 | 9133 ft | 172 kts | 163° |
| 2026-04-27 16:03 | 34.05826 | -100.85680 | 9134 ft | 172 kts | 163° |
| 2026-04-27 16:04 | 34.04804 | -100.84928 | 9130 ft | 172 kts | 163° |
| 2026-04-27 16:04 | 34.03780 | -100.84176 | 9134 ft | 172 kts | 163° |
| 2026-04-27 16:04 | 34.02758 | -100.83426 | 9136 ft | 172 kts | 163° |
| 2026-04-27 16:04 | 34.01734 | -100.82674 | 9136 ft | 172 kts | 163° |
| 2026-04-27 16:05 | 34.00712 | -100.81923 | 9142 ft | 172 kts | 163° |
| 2026-04-27 16:05 | 33.99691 | -100.81175 | 9115 ft | 171 kts | 162° |
| 2026-04-27 16:05 | 33.98682 | -100.80433 | 9132 ft | 169 kts | 162° |
| 2026-04-27 16:05 | 33.97677 | -100.79696 | 9132 ft | 169 kts | 162° |
| 2026-04-27 16:06 | 33.96676 | -100.78963 | 9130 ft | 168 kts | 163° |
| 2026-04-27 16:06 | 33.95676 | -100.78230 | 9131 ft | 168 kts | 163° |
| 2026-04-27 16:06 | 33.94677 | -100.77498 | 9133 ft | 168 kts | 163° |
| 2026-04-27 16:06 | 33.93679 | -100.76767 | 9130 ft | 168 kts | 163° |
| 2026-04-27 16:07 | 33.92681 | -100.76036 | 9130 ft | 168 kts | 163° |
| 2026-04-27 16:07 | 33.91685 | -100.75308 | 9134 ft | 167 kts | 163° |
| 2026-04-27 16:07 | 33.90689 | -100.74578 | 9133 ft | 168 kts | 163° |
| 2026-04-27 16:07 | 33.89692 | -100.73848 | 9137 ft | 168 kts | 163° |
| 2026-04-27 16:08 | 33.88690 | -100.73116 | 9135 ft | 169 kts | 163° |
| 2026-04-27 16:08 | 33.87688 | -100.72382 | 9135 ft | 169 kts | 163° |
| 2026-04-27 16:08 | 33.86684 | -100.71649 | 9133 ft | 169 kts | 163° |
| 2026-04-27 16:08 | 33.85684 | -100.70917 | 9133 ft | 168 kts | 163° |
| 2026-04-27 16:09 | 33.84690 | -100.70190 | 9134 ft | 167 kts | 163° |
| 2026-04-27 16:09 | 33.82694 | -100.68733 | 9134 ft | 168 kts | 163° |
| 2026-04-27 16:09 | 33.81693 | -100.68004 | 9138 ft | 169 kts | 163° |
| 2026-04-27 16:10 | 33.80020 | -100.66782 | 9135 ft | 169 kts | 163° |
| 2026-04-27 16:10 | 33.78005 | -100.65311 | 9135 ft | 169 kts | 163° |
| 2026-04-27 16:11 | 33.76998 | -100.64576 | 9134 ft | 169 kts | 163° |
| 2026-04-27 16:11 | 33.75004 | -100.63121 | 9137 ft | 166 kts | 162° |
| 2026-04-27 16:12 | 33.73031 | -100.61686 | 9133 ft | 166 kts | 163° |
| 2026-04-27 16:12 | 33.72045 | -100.60969 | 9133 ft | 166 kts | 163° |
| 2026-04-27 16:12 | 33.70076 | -100.59534 | 9134 ft | 166 kts | 163° |
| 2026-04-27 16:13 | 33.69090 | -100.58818 | 9131 ft | 165 kts | 163° |
| 2026-04-27 16:13 | 33.67132 | -100.57393 | 9132 ft | 164 kts | 163° |
| 2026-04-27 16:13 | 33.66153 | -100.56681 | 9133 ft | 164 kts | 163° |
| 2026-04-27 16:14 | 33.64201 | -100.55263 | 9135 ft | 164 kts | 163° |
| 2026-04-27 16:14 | 33.62238 | -100.53840 | 9141 ft | 165 kts | 162° |
| 2026-04-27 16:15 | 33.60261 | -100.52404 | 9139 ft | 167 kts | 163° |
| 2026-04-27 16:15 | 33.58271 | -100.50958 | 9138 ft | 167 kts | 163° |
| 2026-04-27 16:16 | 33.56294 | -100.49524 | 9140 ft | 165 kts | 163° |
| 2026-04-27 16:16 | 33.54339 | -100.48107 | 9139 ft | 165 kts | 163° |
| 2026-04-27 16:17 | 33.52369 | -100.46680 | 9142 ft | 166 kts | 163° |
| 2026-04-27 16:17 | 33.50404 | -100.45256 | 9136 ft | 164 kts | 163° |
| 2026-04-27 16:18 | 33.48459 | -100.43849 | 9134 ft | 162 kts | 164° |
| 2026-04-27 16:18 | 33.46530 | -100.42455 | 9136 ft | 161 kts | 164° |
| 2026-04-27 16:19 | 33.45568 | -100.41760 | 9135 ft | 162 kts | 163° |
| 2026-04-27 16:19 | 33.44601 | -100.41061 | 9135 ft | 163 kts | 163° |
| 2026-04-27 16:20 | 33.41670 | -100.38944 | 9137 ft | 164 kts | 163° |
| 2026-04-27 16:20 | 33.40694 | -100.38240 | 9137 ft | 164 kts | 163° |
| 2026-04-27 16:20 | 33.38738 | -100.36827 | 9136 ft | 164 kts | 163° |
| 2026-04-27 16:21 | 33.37762 | -100.36123 | 9139 ft | 164 kts | 164° |
| 2026-04-27 16:21 | 33.34851 | -100.34024 | 9136 ft | 163 kts | 163° |
| 2026-04-27 16:22 | 33.33881 | -100.33325 | 9134 ft | 162 kts | 163° |
| 2026-04-27 16:22 | 33.31942 | -100.31930 | 9136 ft | 163 kts | 163° |
| 2026-04-27 16:22 | 33.30967 | -100.31226 | 9135 ft | 164 kts | 163° |
| 2026-04-27 16:23 | 33.29991 | -100.30524 | 9135 ft | 164 kts | 163° |
| 2026-04-27 16:23 | 33.28045 | -100.29123 | 9136 ft | 163 kts | 163° |
| 2026-04-27 16:23 | 33.27071 | -100.28423 | 9136 ft | 163 kts | 164° |
| 2026-04-27 16:24 | 33.26099 | -100.27724 | 9137 ft | 163 kts | 163° |
| 2026-04-27 16:24 | 33.24167 | -100.26335 | 9135 ft | 162 kts | 164° |
| 2026-04-27 16:25 | 33.22239 | -100.24950 | 9131 ft | 161 kts | 164° |
| 2026-04-27 16:25 | 33.20310 | -100.23565 | 9134 ft | 163 kts | 163° |
| 2026-04-27 16:26 | 33.18371 | -100.22173 | 9132 ft | 162 kts | 164° |
| 2026-04-27 16:26 | 33.16445 | -100.20791 | 9132 ft | 161 kts | 164° |
| 2026-04-27 16:27 | 33.14524 | -100.19413 | 9133 ft | 161 kts | 165° |
| 2026-04-27 16:27 | 33.11656 | -100.17360 | 9133 ft | 161 kts | 164° |
| 2026-04-27 16:28 | 33.09736 | -100.15984 | 9131 ft | 161 kts | 164° |
| 2026-04-27 16:28 | 33.07829 | -100.14618 | 9132 ft | 159 kts | 164° |
| 2026-04-27 16:29 | 33.04967 | -100.12573 | 9134 ft | 160 kts | 165° |
| 2026-04-27 16:30 | 33.03046 | -100.11201 | 9134 ft | 161 kts | 164° |
| 2026-04-27 16:30 | 33.01124 | -100.09826 | 9134 ft | 161 kts | 165° |
| 2026-04-27 16:31 | 32.98259 | -100.07781 | 9130 ft | 160 kts | 165° |
| 2026-04-27 16:31 | 32.96349 | -100.06417 | 9129 ft | 160 kts | 165° |
| 2026-04-27 16:32 | 32.94438 | -100.05056 | 9131 ft | 161 kts | 164° |
| 2026-04-27 16:32 | 32.93476 | -100.04370 | 9131 ft | 161 kts | 164° |
| 2026-04-27 16:33 | 32.91573 | -100.03012 | 9133 ft | 160 kts | 165° |
| 2026-04-27 16:33 | 32.90616 | -100.02333 | 9133 ft | 160 kts | 165° |
| 2026-04-27 16:33 | 32.89659 | -100.01651 | 9133 ft | 160 kts | 165° |
| 2026-04-27 16:33 | 32.88704 | -100.00970 | 9133 ft | 160 kts | 165° |
| 2026-04-27 16:34 | 32.87748 | -100.00290 | 9131 ft | 160 kts | 165° |
| 2026-04-27 16:34 | 32.86793 | -99.99611 | 9131 ft | 160 kts | 165° |
| 2026-04-27 16:34 | 32.85835 | -99.98929 | 9131 ft | 161 kts | 164° |
| 2026-04-27 16:34 | 32.84874 | -99.98246 | 9131 ft | 161 kts | 165° |
| 2026-04-27 16:35 | 32.83911 | -99.97561 | 9133 ft | 161 kts | 165° |
| 2026-04-27 16:35 | 32.82947 | -99.96876 | 9134 ft | 162 kts | 165° |
| 2026-04-27 16:35 | 32.81014 | -99.95501 | 9134 ft | 162 kts | 164° |
| 2026-04-27 16:36 | 32.80048 | -99.94815 | 9133 ft | 161 kts | 165° |
| 2026-04-27 16:36 | 32.79105 | -99.94143 | 9134 ft | 162 kts | 165° |
| 2026-04-27 16:36 | 32.78138 | -99.93461 | 9135 ft | 161 kts | 165° |
| 2026-04-27 16:36 | 32.77176 | -99.92784 | 9135 ft | 161 kts | 165° |
| 2026-04-27 16:37 | 32.76215 | -99.92104 | 9122 ft | 161 kts | 165° |
| 2026-04-27 16:37 | 32.75239 | -99.91421 | 8999 ft | 167 kts | 165° |
| 2026-04-27 16:37 | 32.74234 | -99.90751 | 8808 ft | 164 kts | 166° |
| 2026-04-27 16:37 | 32.73240 | -99.90128 | 8651 ft | 161 kts | 166° |
| 2026-04-27 16:38 | 32.72248 | -99.89512 | 8420 ft | 163 kts | 166° |
| 2026-04-27 16:38 | 32.71220 | -99.88866 | 8135 ft | 170 kts | 164° |
| 2026-04-27 16:38 | 32.70185 | -99.88208 | 7958 ft | 168 kts | 163° |
| 2026-04-27 16:38 | 32.69186 | -99.87436 | 7728 ft | 177 kts | 151° |
| 2026-04-27 16:39 | 32.68381 | -99.86291 | 7465 ft | 192 kts | 125° |
| 2026-04-27 16:39 | 32.68083 | -99.84715 | 7185 ft | 202 kts | 86° |
| 2026-04-27 16:39 | 32.68641 | -99.83248 | 6871 ft | 194 kts | 36° |
| 2026-04-27 16:39 | 32.69806 | -99.83103 | 6159 ft | 177 kts | 315° |
| 2026-04-27 16:40 | 32.69830 | -99.84372 | 5644 ft | 178 kts | 227° |
| 2026-04-27 16:40 | 32.68601 | -99.84272 | 5145 ft | 212 kts | 140° |
| 2026-04-27 16:40 | 32.68049 | -99.82742 | 5321 ft | 178 kts | 117° |
| 2026-04-27 16:40 | 32.67417 | -99.81602 | 5316 ft | 171 kts | 139° |
| 2026-04-27 16:41 | 32.66472 | -99.80811 | 5247 ft | 163 kts | 155° |
| 2026-04-27 16:41 | 32.65489 | -99.80138 | 5082 ft | 165 kts | 157° |
| 2026-04-27 16:41 | 32.64484 | -99.79466 | 4902 ft | 167 kts | 156° |
| 2026-04-27 16:41 | 32.63500 | -99.78717 | 4748 ft | 169 kts | 150° |
| 2026-04-27 16:42 | 32.62554 | -99.77867 | 4588 ft | 171 kts | 147° |
| 2026-04-27 16:42 | 32.61612 | -99.76996 | 4445 ft | 172 kts | 146° |
| 2026-04-27 16:42 | 32.60647 | -99.76165 | 4305 ft | 170 kts | 153° |
| 2026-04-27 16:42 | 32.59640 | -99.75497 | 4263 ft | 164 kts | 158° |
| 2026-04-27 16:43 | 32.58623 | -99.74876 | 4138 ft | 165 kts | 159° |
| 2026-04-27 16:43 | 32.57611 | -99.74242 | 4099 ft | 161 kts | 155° |
| 2026-04-27 16:43 | 32.56645 | -99.73583 | 4086 ft | 159 kts | 155° |
| 2026-04-27 16:43 | 32.55686 | -99.72960 | 4073 ft | 157 kts | 158° |
| 2026-04-27 16:44 | 32.54717 | -99.72320 | 3970 ft | 159 kts | 159° |
| 2026-04-27 16:44 | 32.53712 | -99.71962 | 3983 ft | 146 kts | 178° |
| 2026-04-27 16:44 | 32.52688 | -99.71824 | 3888 ft | 151 kts | 178° |
| 2026-04-27 16:44 | 32.51636 | -99.71666 | 3781 ft | 154 kts | 180° |
| 2026-04-27 16:45 | 32.50567 | -99.71552 | 3700 ft | 154 kts | 183° |
| 2026-04-27 16:45 | 32.49504 | -99.71559 | 3628 ft | 149 kts | 195° |
| 2026-04-27 16:45 | 32.48558 | -99.71948 | 3601 ft | 139 kts | 218° |
| 2026-04-27 16:45 | 32.47764 | -99.72597 | 3502 ft | 143 kts | 216° |
| 2026-04-27 16:46 | 32.46795 | -99.72963 | 3467 ft | 148 kts | 194° |
| 2026-04-27 16:46 | 32.45792 | -99.72878 | 3596 ft | 147 kts | 173° |
| 2026-04-27 16:46 | 32.44773 | -99.72527 | 3464 ft | 155 kts | 172° |
| 2026-04-27 16:46 | 32.43714 | -99.72322 | 3362 ft | 151 kts | 180° |
| 2026-04-27 16:47 | 32.42673 | -99.72253 | 3275 ft | 151 kts | 186° |
| 2026-04-27 16:47 | 32.41631 | -99.72142 | 3244 ft | 152 kts | 179° |
| 2026-04-27 16:47 | 32.40586 | -99.71982 | 3188 ft | 151 kts | 182° |
| 2026-04-27 16:47 | 32.39538 | -99.71853 | 3107 ft | 150 kts | 183° |
| 2026-04-27 16:48 | 32.38552 | -99.71516 | 2963 ft | 147 kts | 147° |
| 2026-04-27 16:48 | 32.38027 | -99.70512 | 2692 ft | 141 kts | 100° |
| 2026-04-27 16:48 | 32.38107 | -99.69392 | 2475 ft | 134 kts | 66° |
| 2026-04-27 16:49 | 32.39230 | -99.68470 | 2150 ft | 87 kts | 343° |
| 2026-04-27 16:49 | 32.39840 | -99.68479 | 2043 ft | 88 kts | 348° |
| 2026-04-27 16:49 | 32.40442 | -99.68482 | 1929 ft | 85 kts | 346° |
| 2026-04-27 16:49 | 32.41033 | -99.68486 | 1806 ft | 84 kts | 355° |
| 2026-04-27 16:50 | 32.41546 | -99.68480 | 1798 ft | 61 kts | 351° |
| 2026-04-27 16:50 | 32.41886 | -99.68490 | 1799 ft | 41 kts | 0° |
| 2026-04-27 16:50 | 32.42117 | -99.68489 | 1796 ft | 27 kts | 0° |
| 2026-04-27 16:50 | 32.42267 | -99.68520 | 1794 ft | 18 kts | 326° |
| 2026-04-27 16:51 | 32.42369 | -99.68613 | 1795 ft | 20 kts | 329° |
| 2026-04-27 16:51 | 32.42494 | -99.68703 | 1796 ft | 19 kts | 332° |
| 2026-04-27 16:51 | 32.42591 | -99.68693 | 1793 ft | 12 kts | 128° |
| 2026-04-27 16:51 | 32.42539 | -99.68739 | 1794 ft | 7 kts | 268° |
| 2026-04-27 16:52 | 32.42549 | -99.68756 | 1793 ft | 0 kts | 319° |